Terminal Aerodrome Forecast
Issued by NWS Blacksburg, VA

Home | Current Version | Previous Version | Text Only | Print | Product List | Glossary On
Versions: 1 2 3 4 5 6 7 8 9 10 11 12 13
000
FTUS41 KRNK 260523
TAFBLF
TAF
KBLF 260523Z 2606/2706 30006KT P6SM SCT030
     FM260900 27004KT 4SM BR SCT007
     FM261500 32006KT P6SM SCT045=

USA.gov is the U.S. government's official web portal to all federal, state and local government web resources and services.